createdAt,value
2019-05-20T00:01:07.119Z,14.47
2019-05-20T00:03:37.142Z,10.63
2019-05-20T00:06:07.335Z,12.87
2019-05-20T00:08:37.527Z,18.73
2019-05-20T00:11:07.596Z,20.97
2019-05-20T00:13:37.870Z,15.97
2019-05-20T00:16:07.962Z,14.23
2019-05-20T00:18:37.886Z,11.83
2019-05-20T00:21:07.847Z,18.47
2019-05-20T00:23:37.807Z,17.60
2019-05-20T00:26:07.839Z,15.80
2019-05-20T00:28:37.859Z,12.70
2019-05-20T00:31:07.831Z,13.20
2019-05-20T00:33:37.758Z,10.97
2019-05-20T00:36:07.784Z,16.70
2019-05-20T00:38:37.736Z,18.27
2019-05-20T00:41:07.717Z,18.60
2019-05-20T00:43:37.590Z,20.03
2019-05-20T00:46:07.642Z,19.57
2019-05-20T00:48:37.660Z,14.87
2019-05-20T00:51:08.020Z,10.07
2019-05-20T00:53:38.035Z,17.93
2019-05-20T00:56:08.077Z,23.20
2019-05-20T00:58:38.096Z,26.50
2019-05-20T01:01:08.196Z,19.37
2019-05-20T01:03:38.135Z,19.90
2019-05-20T01:06:08.167Z,23.50
2019-05-20T01:08:38.113Z,24.83
2019-05-20T01:11:08.535Z,26.37
2019-05-20T01:13:38.571Z,27.60
2019-05-20T01:16:08.707Z,27.27
2019-05-20T01:18:38.652Z,28.80
2019-05-20T01:21:08.701Z,27.60
2019-05-20T01:23:38.730Z,25.77
2019-05-20T01:26:08.759Z,22.20
2019-05-20T01:28:38.793Z,23.47
2019-05-20T01:31:08.807Z,26.37
2019-05-20T01:33:38.859Z,17.83
2019-05-20T01:36:08.881Z,21.67
2019-05-20T01:38:38.753Z,24.67
2019-05-20T01:41:08.930Z,32.00
2019-05-20T01:43:38.820Z,34.00
2019-05-20T01:46:08.869Z,20.37
2019-05-20T01:48:38.751Z,18.80
2019-05-20T01:51:08.903Z,24.57
2019-05-20T01:53:38.950Z,20.57
2019-05-20T01:56:09.035Z,25.23
2019-05-20T01:58:39.819Z,22.13
2019-05-20T02:01:10.283Z,23.17
2019-05-20T02:03:40.260Z,21.47
2019-05-20T02:06:10.188Z,23.47
2019-05-20T02:08:40.454Z,25.83
2019-05-20T02:11:10.386Z,23.93
2019-05-20T02:13:56.970Z,26.53
2019-05-20T02:16:27.428Z,24.97
2019-05-20T02:18:57.532Z,22.07
2019-05-20T02:21:27.571Z,28.50
2019-05-20T02:23:57.637Z,22.07
2019-05-20T02:26:27.764Z,25.87
2019-05-20T02:28:57.857Z,24.03
2019-05-20T02:34:19.279Z,18.23
2019-05-20T02:36:49.312Z,23.90
2019-05-20T02:39:19.343Z,30.83
2019-05-20T02:41:49.333Z,21.40
2019-05-20T02:44:19.295Z,18.53
2019-05-20T02:46:49.331Z,28.23
2019-05-20T02:49:19.393Z,29.47
2019-05-20T02:51:49.329Z,27.60
2019-05-20T02:54:19.382Z,29.90
2019-05-20T02:56:49.469Z,27.87
2019-05-20T02:59:19.495Z,30.10
2019-05-20T03:01:49.538Z,26.37
2019-05-20T03:04:19.600Z,28.97
2019-05-20T03:06:49.631Z,29.43
2019-05-20T03:09:19.700Z,33.90
2019-05-20T03:11:49.882Z,28.97
2019-05-20T03:14:20.192Z,27.20
2019-05-20T03:16:50.214Z,31.03
2019-05-20T03:19:20.187Z,27.17
2019-05-20T03:21:50.207Z,32.77
2019-05-20T03:24:20.251Z,28.03
2019-05-20T03:26:50.368Z,26.37
2019-05-20T03:29:20.702Z,30.77
2019-05-20T03:31:50.776Z,23.03
2019-05-20T03:34:44.261Z,22.77
2019-05-20T03:36:52.711Z,19.77
2019-05-20T03:39:22.732Z,17.93
2019-05-20T03:41:52.805Z,20.10
2019-05-20T03:44:22.767Z,21.73
2019-05-20T03:46:52.800Z,24.37
2019-05-20T03:49:22.848Z,22.23
2019-05-20T03:51:52.894Z,23.77
2019-05-20T03:54:22.934Z,26.13
2019-05-20T03:56:52.951Z,21.40
2019-05-20T03:59:22.909Z,23.90
2019-05-20T04:01:52.876Z,22.97
2019-05-20T04:04:25.246Z,22.77
2019-05-20T04:06:54.558Z,22.37
2019-05-20T04:09:24.587Z,26.27
2019-05-20T04:11:54.634Z,21.90
2019-05-20T04:14:24.669Z,26.27
2019-05-20T04:16:54.811Z,20.83
2019-05-20T04:19:24.832Z,23.10
2019-05-20T04:21:54.865Z,21.13
2019-05-20T04:24:24.942Z,26.63
2019-05-20T04:26:58.777Z,26.97
2019-05-20T04:29:28.823Z,27.13
2019-05-20T04:31:58.869Z,24.33
2019-05-20T04:34:28.976Z,24.67
2019-05-20T04:36:58.939Z,26.70
2019-05-20T04:39:28.986Z,24.63
2019-05-20T04:41:59.001Z,24.07
2019-05-20T04:44:29.098Z,25.23
2019-05-20T04:46:59.159Z,20.37
2019-05-20T04:49:29.181Z,31.57
2019-05-20T04:51:59.215Z,25.30
2019-05-20T04:54:29.190Z,27.37
2019-05-20T04:56:59.635Z,25.73
2019-05-20T04:59:30.069Z,20.70
2019-05-20T05:02:00.159Z,25.20
2019-05-20T05:04:30.209Z,24.00
2019-05-20T05:07:01.747Z,20.53
2019-05-20T05:09:31.942Z,22.93
2019-05-20T05:12:01.992Z,24.13
2019-05-20T05:14:32.248Z,25.90
2019-05-20T05:17:02.289Z,26.43
2019-05-20T05:19:32.338Z,22.63
2019-05-20T05:22:02.612Z,25.27
2019-05-20T05:24:32.674Z,28.20
2019-05-20T05:27:02.755Z,27.53
2019-05-20T05:29:32.807Z,26.33
2019-05-20T05:32:02.957Z,26.47
2019-05-20T05:34:33.014Z,25.90
2019-05-20T05:37:03.246Z,24.30
2019-05-20T05:39:33.314Z,31.10
2019-05-20T05:42:03.561Z,27.60
2019-05-20T05:44:33.818Z,24.20
2019-05-20T05:47:03.789Z,23.70
2019-05-20T05:49:33.815Z,25.00
2019-05-20T05:52:03.798Z,25.73
2019-05-20T05:54:33.902Z,20.87
2019-05-20T05:57:03.945Z,27.67
2019-05-20T05:59:33.903Z,22.07
2019-05-20T06:02:03.943Z,21.07
2019-05-20T06:04:33.905Z,23.20
2019-05-20T06:07:03.893Z,25.10
2019-05-20T06:09:33.832Z,20.43
2019-05-20T06:12:03.902Z,21.37
2019-05-20T06:14:33.948Z,16.73
2019-05-20T06:17:04.032Z,20.07
2019-05-20T06:19:34.069Z,20.07
2019-05-20T06:22:04.217Z,21.83
2019-05-20T06:24:34.320Z,19.03
2019-05-20T06:27:04.371Z,18.80
2019-05-20T06:29:34.251Z,16.17
2019-05-20T06:32:04.356Z,20.07
2019-05-20T06:34:34.636Z,25.43
2019-05-20T06:37:07.162Z,27.20
2019-05-20T06:39:37.184Z,20.97
2019-05-20T06:42:07.467Z,20.87
2019-05-20T06:44:51.604Z,22.87
2019-05-20T06:47:09.163Z,21.43
2019-05-20T06:49:39.199Z,19.50
2019-05-20T06:52:09.263Z,18.77
2019-05-20T06:54:39.291Z,21.17
2019-05-20T06:57:09.365Z,20.57
2019-05-20T06:59:39.389Z,14.33
2019-05-20T07:02:09.634Z,16.43
2019-05-20T07:04:42.741Z,19.80
2019-05-20T07:07:20.887Z,17.67
2019-05-20T07:09:44.802Z,18.03
2019-05-20T07:12:14.872Z,18.53
2019-05-20T07:14:44.889Z,20.70
2019-05-20T07:17:14.780Z,20.90
2019-05-20T07:19:44.827Z,21.70
2019-05-20T07:22:15.079Z,17.83
2019-05-20T07:24:45.131Z,18.17
2019-05-20T07:27:15.181Z,18.00
2019-05-20T07:29:46.013Z,14.40
2019-05-20T07:32:16.099Z,20.93
2019-05-20T07:34:47.763Z,17.67
2019-05-20T07:37:17.909Z,20.07
2019-05-20T07:39:47.966Z,17.87
2019-05-20T07:42:18.071Z,17.03
2019-05-20T07:44:48.087Z,16.30
2019-05-20T07:47:18.140Z,16.13
2019-05-20T07:49:49.088Z,11.30
2019-05-20T07:52:19.938Z,18.47
2019-05-20T07:54:50.896Z,15.30
2019-05-20T07:57:22.055Z,16.13
2019-05-20T07:59:55.015Z,16.07
2019-05-20T08:02:25.661Z,13.97
2019-05-20T08:04:55.744Z,14.30
2019-05-20T08:07:35.623Z,14.10
2019-05-20T08:09:57.585Z,10.90
2019-05-20T08:12:27.623Z,13.33
2019-05-20T08:14:57.694Z,12.83
2019-05-20T08:17:27.715Z,18.57
2019-05-20T08:19:57.778Z,17.00
2019-05-20T08:22:28.052Z,16.20
2019-05-20T08:24:58.030Z,17.90
2019-05-20T08:27:28.068Z,17.17
2019-05-20T08:29:58.109Z,19.23
2019-05-20T08:32:28.237Z,16.77
2019-05-20T08:34:58.394Z,15.37
2019-05-20T08:37:44.340Z,14.47
2019-05-20T08:40:00.376Z,19.63
2019-05-20T08:42:30.462Z,17.47
2019-05-20T08:45:00.539Z,17.77
2019-05-20T08:47:30.634Z,14.37
2019-05-20T08:50:00.741Z,13.57
2019-05-20T08:52:30.772Z,19.20
2019-05-20T08:55:00.805Z,16.13
2019-05-20T08:57:30.874Z,12.50
2019-05-20T09:00:00.961Z,14.13
2019-05-20T09:02:31.067Z,18.40
2019-05-20T09:05:01.053Z,12.53
2019-05-20T09:07:31.109Z,19.80
2019-05-20T09:10:01.101Z,16.40
2019-05-20T09:12:31.237Z,15.10
2019-05-20T09:15:01.286Z,16.33
2019-05-20T09:17:31.354Z,13.20
2019-05-20T09:20:01.811Z,12.90
2019-05-20T09:22:32.035Z,13.43
2019-05-20T09:25:02.449Z,14.90
2019-05-20T09:27:32.567Z,16.83
2019-05-20T09:30:02.933Z,20.77
2019-05-20T09:32:33.089Z,19.57
2019-05-20T09:35:03.612Z,17.73
2019-05-20T09:37:33.770Z,16.20
2019-05-20T09:40:04.286Z,16.57
2019-05-20T09:42:34.323Z,15.57
2019-05-20T09:45:04.549Z,18.83
2019-05-20T09:47:34.591Z,17.50
2019-05-20T09:50:05.174Z,18.33
2019-05-20T09:52:35.277Z,21.07
2019-05-20T09:55:05.588Z,14.67
2019-05-20T09:57:35.632Z,20.33
2019-05-20T10:00:06.396Z,19.87
2019-05-20T10:02:38.298Z,17.20
2019-05-20T10:05:08.159Z,24.73
2019-05-20T10:07:38.243Z,21.60
2019-05-20T10:10:08.493Z,20.70
2019-05-20T10:12:46.117Z,16.83
2019-05-20T10:15:11.146Z,17.13
2019-05-20T10:17:41.316Z,18.57
2019-05-20T10:20:13.169Z,21.63
2019-05-20T10:22:43.127Z,18.23
2019-05-20T10:25:12.895Z,16.00
2019-05-20T10:27:43.509Z,17.60
2019-05-20T10:30:13.760Z,15.70
2019-05-20T10:32:43.923Z,20.87
2019-05-20T10:35:14.107Z,20.03
2019-05-20T10:37:44.184Z,16.73
2019-05-20T10:40:14.612Z,21.17
2019-05-20T10:42:44.670Z,18.10
2019-05-20T10:45:14.692Z,17.93
2019-05-20T10:47:44.767Z,17.73
2019-05-20T10:50:14.891Z,17.03
2019-05-20T10:52:45.047Z,16.07
2019-05-20T10:55:16.873Z,14.40
2019-05-20T10:57:46.871Z,18.37
2019-05-20T11:00:18.789Z,18.70
2019-05-20T11:02:48.880Z,18.97
2019-05-20T11:05:19.857Z,20.63
2019-05-20T11:07:50.207Z,17.33
2019-05-20T11:10:20.224Z,17.30
2019-05-20T11:12:50.305Z,17.93
2019-05-20T11:15:20.328Z,17.30
2019-05-20T11:17:50.450Z,16.33
2019-05-20T11:20:20.752Z,21.70
2019-05-20T11:22:50.822Z,18.00
2019-05-20T11:25:21.069Z,18.87
2019-05-20T11:27:51.112Z,17.80
2019-05-20T11:30:21.349Z,21.77
2019-05-20T11:32:51.451Z,18.90
2019-05-20T11:35:22.168Z,20.30
2019-05-20T11:37:55.167Z,19.53
2019-05-20T11:40:25.719Z,20.30
2019-05-20T11:42:58.175Z,20.47
2019-05-20T11:45:28.252Z,19.90
2019-05-20T11:47:58.341Z,18.07
2019-05-20T11:50:28.438Z,17.13
2019-05-20T11:52:58.703Z,16.60
2019-05-20T11:55:28.826Z,15.50
2019-05-20T11:58:14.522Z,15.43
2019-05-20T12:00:30.772Z,14.80
2019-05-20T12:03:00.990Z,17.03
2019-05-20T12:05:31.044Z,15.23
2019-05-20T12:08:01.172Z,11.37
2019-05-20T12:10:31.151Z,17.47
2019-05-20T12:13:01.576Z,17.40
2019-05-20T12:15:31.676Z,17.37
2019-05-20T12:18:01.678Z,15.80
2019-05-20T12:20:31.733Z,14.33
2019-05-20T12:23:01.808Z,13.17
2019-05-20T12:25:32.011Z,15.23
2019-05-20T12:28:02.730Z,14.37
2019-05-20T12:30:32.830Z,13.80
2019-05-20T12:33:17.783Z,12.27
2019-05-20T12:35:34.643Z,17.63
2019-05-20T12:38:04.901Z,15.00
2019-05-20T12:40:35.241Z,15.07
2019-05-20T12:43:05.258Z,16.80
2019-05-20T12:45:37.848Z,14.90
2019-05-20T12:48:07.983Z,16.97
2019-05-20T12:50:38.034Z,20.33
2019-05-20T12:53:08.043Z,20.90
2019-05-20T12:55:38.167Z,19.07
2019-05-20T12:58:08.272Z,16.03
2019-05-20T13:00:38.395Z,15.87
2019-05-20T13:03:09.046Z,16.17
2019-05-20T13:05:39.665Z,20.63
2019-05-20T13:08:10.793Z,19.87
2019-05-20T13:10:42.021Z,21.00
2019-05-20T13:13:13.110Z,21.93
2019-05-20T13:15:44.101Z,20.67
2019-05-20T13:18:15.168Z,19.40
2019-05-20T13:20:46.258Z,23.20
2019-05-20T13:23:17.673Z,22.57
2019-05-20T13:25:48.406Z,23.47
2019-05-20T13:28:18.575Z,29.40
2019-05-20T13:30:48.676Z,22.33
2019-05-20T13:33:19.595Z,20.30
2019-05-20T13:35:49.674Z,20.43
2019-05-20T13:38:19.926Z,23.80
2019-05-20T13:40:49.899Z,23.10
2019-05-20T13:43:19.976Z,22.63
2019-05-20T13:45:50.043Z,21.10
2019-05-20T13:48:20.172Z,22.00
2019-05-20T13:50:50.345Z,26.37
2019-05-20T13:53:20.470Z,20.73
2019-05-20T13:55:50.550Z,23.27
2019-05-20T13:58:20.736Z,18.40
2019-05-20T14:00:51.019Z,20.97
2019-05-20T14:03:20.994Z,19.13
2019-05-20T14:05:50.982Z,18.57
2019-05-20T14:08:20.939Z,23.20
2019-05-20T14:11:03.806Z,20.50
2019-05-20T14:13:22.660Z,22.53
2019-05-20T14:15:52.724Z,25.90
2019-05-20T14:18:22.702Z,21.67
2019-05-20T14:20:52.748Z,23.20
2019-05-20T14:23:22.816Z,25.53
2019-05-20T14:25:52.881Z,21.60
2019-05-20T14:28:23.001Z,25.13
2019-05-20T14:30:53.033Z,21.43
2019-05-20T14:33:23.094Z,22.13
2019-05-20T14:35:53.080Z,21.10
2019-05-20T14:38:23.115Z,24.90
2019-05-20T14:40:53.197Z,21.60
2019-05-20T14:43:23.276Z,25.43
2019-05-20T14:45:53.310Z,21.77
2019-05-20T14:48:23.359Z,20.80
2019-05-20T14:50:53.392Z,23.57
2019-05-20T14:53:23.464Z,21.13
2019-05-20T14:55:53.499Z,26.53
2019-05-20T14:58:23.483Z,23.63
2019-05-20T15:00:53.556Z,20.53
2019-05-20T15:03:23.593Z,22.00
2019-05-20T15:05:53.750Z,19.93
2019-05-20T15:08:23.848Z,25.07
2019-05-20T15:10:53.883Z,22.97
2019-05-20T15:13:23.865Z,21.67
2019-05-20T15:15:53.984Z,21.57
2019-05-20T15:18:24.035Z,22.50
2019-05-20T15:20:54.012Z,22.47
2019-05-20T15:23:24.083Z,21.07
2019-05-20T15:25:54.146Z,18.73
2019-05-20T15:28:24.246Z,27.10
2019-05-20T15:30:55.805Z,22.73
2019-05-20T15:33:28.690Z,22.70
2019-05-20T15:35:58.859Z,22.30
2019-05-20T15:38:29.271Z,28.13
2019-05-20T15:40:59.824Z,26.50
2019-05-20T15:43:29.737Z,27.07
2019-05-20T15:45:59.703Z,25.37
2019-05-20T15:48:29.781Z,25.90
2019-05-20T15:50:59.900Z,31.23
2019-05-20T15:53:29.977Z,23.70
2019-05-20T15:56:00.050Z,22.60
2019-05-20T15:58:30.130Z,26.03
2019-05-20T16:01:00.200Z,24.17
2019-05-20T16:03:30.288Z,24.00
2019-05-20T16:06:00.491Z,24.93
2019-05-20T16:08:30.488Z,22.17
2019-05-20T16:11:00.555Z,28.23
2019-05-20T16:13:30.732Z,27.40
2019-05-20T16:16:00.911Z,27.30
2019-05-20T16:18:30.975Z,29.10
2019-05-20T16:21:01.052Z,33.23
2019-05-20T16:23:30.980Z,36.20
2019-05-20T16:26:01.093Z,32.63
2019-05-20T16:28:31.119Z,35.63
2019-05-20T16:31:01.202Z,27.73
2019-05-20T16:33:31.424Z,30.27
2019-05-20T16:36:02.009Z,28.80
2019-05-20T16:38:32.819Z,30.03
2019-05-20T16:41:02.807Z,29.77
2019-05-20T16:43:32.855Z,27.07
2019-05-20T16:46:02.900Z,22.73
2019-05-20T16:48:34.924Z,23.37
2019-05-20T16:51:05.041Z,24.03
2019-05-20T16:53:35.171Z,25.37
2019-05-20T16:56:05.540Z,26.00
2019-05-20T16:58:35.645Z,24.87
2019-05-20T17:01:05.719Z,26.93
2019-05-20T17:03:35.811Z,25.80
2019-05-20T17:06:05.966Z,26.77
2019-05-20T17:08:35.980Z,25.03
2019-05-20T17:11:06.106Z,24.00
2019-05-20T17:13:36.118Z,24.30
2019-05-20T17:16:06.400Z,24.17
2019-05-20T17:18:37.667Z,23.23
2019-05-20T17:21:10.511Z,27.20
2019-05-20T17:23:41.022Z,26.27
2019-05-20T17:26:11.060Z,28.07
2019-05-20T17:28:41.152Z,25.57
2019-05-20T17:31:11.181Z,24.03
2019-05-20T17:33:41.304Z,25.47
2019-05-20T17:36:11.283Z,24.90
2019-05-20T17:38:41.832Z,24.03
2019-05-20T17:41:12.091Z,24.07
2019-05-20T17:43:42.263Z,27.30
2019-05-20T17:46:12.614Z,25.63
2019-05-20T17:48:42.852Z,21.67
2019-05-20T17:51:12.964Z,22.93
2019-05-20T17:53:43.052Z,24.93
2019-05-20T17:56:13.351Z,22.47
2019-05-20T17:58:43.418Z,21.03
2019-05-20T18:01:15.926Z,22.20
2019-05-20T18:03:45.183Z,22.97
2019-05-20T18:06:15.187Z,22.80
2019-05-20T18:08:47.935Z,25.60
2019-05-20T18:11:19.352Z,21.40
2019-05-20T18:13:49.610Z,21.30
2019-05-20T18:16:19.696Z,18.93
2019-05-20T18:18:50.108Z,20.23
2019-05-20T18:21:20.756Z,20.63
2019-05-20T18:23:52.156Z,19.20
2019-05-20T18:26:22.938Z,21.20
2019-05-20T18:28:53.209Z,17.30
2019-05-20T18:31:31.783Z,18.97
2019-05-20T18:33:55.592Z,22.80
2019-05-20T18:36:28.537Z,23.73
2019-05-20T18:38:59.655Z,19.40
2019-05-20T18:41:30.239Z,16.97
2019-05-20T18:44:00.543Z,23.27
2019-05-20T18:46:30.621Z,19.60
2019-05-20T18:49:01.259Z,17.63
2019-05-20T18:51:31.475Z,19.00
2019-05-20T18:54:02.219Z,18.67
2019-05-20T18:56:32.764Z,17.03
2019-05-20T18:59:03.269Z,17.20
2019-05-20T19:01:47.303Z,17.17
2019-05-20T19:04:10.655Z,19.03
2019-05-20T19:06:41.073Z,17.70
2019-05-20T19:09:11.888Z,17.07
2019-05-20T19:11:45.151Z,17.13
2019-05-20T19:14:16.364Z,15.07
2019-05-20T19:16:46.890Z,14.60
2019-05-20T19:19:17.460Z,15.37
2019-05-20T19:21:48.261Z,17.37
2019-05-20T19:24:18.856Z,17.97
2019-05-20T19:26:49.576Z,18.83
2019-05-20T19:29:20.453Z,19.10
2019-05-20T19:32:01.411Z,18.87
2019-05-20T19:34:23.547Z,18.43
2019-05-20T19:36:53.907Z,17.37
2019-05-20T19:39:23.980Z,18.17
2019-05-20T19:41:54.018Z,19.33
2019-05-20T19:44:23.989Z,18.90
2019-05-20T19:46:54.029Z,17.97
2019-05-20T19:49:24.441Z,19.43
2019-05-20T19:51:54.711Z,18.57
2019-05-20T19:54:24.815Z,17.07
2019-05-20T19:56:54.796Z,20.53
2019-05-20T19:59:25.275Z,20.27
2019-05-20T20:01:55.325Z,19.17
2019-05-20T20:04:25.573Z,16.97
2019-05-20T20:06:55.587Z,20.47
2019-05-20T20:09:25.638Z,19.47
2019-05-20T20:11:55.710Z,18.13
2019-05-20T20:14:25.798Z,17.77
2019-05-20T20:16:56.286Z,19.03
2019-05-20T20:19:26.364Z,17.73
2019-05-20T20:21:56.332Z,19.33
2019-05-20T20:24:26.440Z,19.67
2019-05-20T20:26:58.701Z,22.40
2019-05-20T20:29:28.756Z,18.10
2019-05-20T20:31:58.966Z,17.00
2019-05-20T20:34:30.702Z,19.87
2019-05-20T20:37:01.065Z,18.67
2019-05-20T20:39:34.309Z,18.20
2019-05-20T20:42:02.751Z,16.63
2019-05-20T20:44:32.783Z,17.70
2019-05-20T20:47:04.937Z,17.43
2019-05-20T20:49:35.514Z,17.60
2019-05-20T20:52:05.790Z,20.17
2019-05-20T20:54:36.317Z,18.23
2019-05-20T20:57:06.623Z,20.30
2019-05-20T20:59:36.628Z,21.50
2019-05-20T21:02:06.596Z,17.37
2019-05-20T21:04:36.511Z,19.43
2019-05-20T21:07:06.611Z,21.80
2019-05-20T21:09:36.557Z,18.20
2019-05-20T21:12:06.552Z,20.13
2019-05-20T21:14:36.568Z,22.93
2019-05-20T21:17:06.680Z,23.23
2019-05-20T21:19:36.778Z,16.73
2019-05-20T21:22:06.760Z,17.27
2019-05-20T21:24:37.010Z,21.03
2019-05-20T21:27:07.035Z,22.57
2019-05-20T21:29:37.014Z,21.13
2019-05-20T21:32:07.099Z,15.77
2019-05-20T21:34:37.059Z,22.23
2019-05-20T21:37:07.087Z,20.30
2019-05-20T21:39:36.975Z,17.23
2019-05-20T21:42:06.998Z,16.83
2019-05-20T21:44:37.023Z,16.70
2019-05-20T21:47:07.045Z,20.67
2019-05-20T21:49:37.013Z,16.57
2019-05-20T21:52:07.044Z,16.03
2019-05-20T21:54:36.928Z,16.17
2019-05-20T21:57:06.973Z,18.20
2019-05-20T21:59:36.926Z,17.07
2019-05-20T22:02:07.015Z,16.13
2019-05-20T22:04:37.159Z,20.47
2019-05-20T22:07:07.189Z,20.77
2019-05-20T22:09:37.207Z,23.33
2019-05-20T22:12:07.239Z,24.17
2019-05-20T22:14:37.281Z,28.07
2019-05-20T22:17:07.313Z,22.93
2019-05-20T22:19:37.324Z,29.27
2019-05-20T22:22:26.459Z,25.90
2019-05-20T22:24:56.577Z,21.20
2019-05-20T22:27:26.653Z,26.10
2019-05-20T22:29:56.599Z,26.67
2019-05-20T22:32:26.559Z,28.30
2019-05-20T22:34:56.593Z,27.77
2019-05-20T22:37:26.859Z,34.10
2019-05-20T22:39:56.875Z,29.23
2019-05-20T22:42:26.835Z,26.43
2019-05-20T22:44:56.762Z,28.70
2019-05-20T22:47:26.787Z,28.23
2019-05-20T22:49:56.760Z,27.70
2019-05-20T22:52:26.726Z,28.53
2019-05-20T22:54:56.606Z,25.10
2019-05-20T22:57:26.567Z,33.37
2019-05-20T22:59:56.447Z,30.23
2019-05-20T23:02:26.489Z,26.93
2019-05-20T23:04:56.362Z,31.77
2019-05-20T23:07:26.359Z,27.23
2019-05-20T23:09:56.438Z,25.73
2019-05-20T23:12:26.395Z,27.67
2019-05-20T23:14:56.340Z,28.10
2019-05-20T23:17:26.388Z,35.67
2019-05-20T23:19:56.243Z,35.00
2019-05-20T23:22:26.283Z,28.70
2019-05-20T23:24:56.175Z,29.43
2019-05-20T23:27:26.200Z,29.07
2019-05-20T23:29:56.152Z,28.83
2019-05-20T23:32:26.107Z,31.90
2019-05-20T23:34:56.083Z,33.53
2019-05-20T23:37:26.045Z,31.63
2019-05-20T23:39:55.914Z,30.83
2019-05-20T23:42:26.036Z,33.87
2019-05-20T23:44:55.984Z,29.87
2019-05-20T23:47:25.944Z,28.03
2019-05-20T23:49:55.808Z,26.97
2019-05-20T23:52:25.764Z,31.23
2019-05-20T23:54:55.780Z,35.43
2019-05-20T23:57:25.736Z,31.33
2019-05-20T23:59:55.753Z,28.70
